Time;durP1;ratioP1;P1;durP2;ratioP2;P2;SDS_P1;SDS_P2;PMS_P1;PMS_P2;Temp;Humidity;BMP_temperature;BMP_pressure;BME280_temperature;BME280_humidity;BME280_pressure;Samples;Min_cycle;Max_cycle;Signal;HPM_P1;HPM_P2
2023/04/24 00:02:06;;;;;;;0.40;0.40;;;10.60;99.90;;;;;;4997780;28;20580;-70
2023/04/24 00:04:32;;;;;;;0.30;0.30;;;10.60;99.90;;;;;;4996371;28;20234;-70
2023/04/24 00:06:59;;;;;;;0.40;0.40;;;10.60;99.90;;;;;;4997720;28;20172;-69
2023/04/24 00:09:25;;;;;;;0.30;0.30;;;10.60;99.90;;;;;;4998173;28;20282;-70
2023/04/24 00:11:52;;;;;;;0.43;0.43;;;10.70;99.90;;;;;;4997652;28;20191;-70
2023/04/24 00:14:18;;;;;;;0.30;0.30;;;10.60;99.90;;;;;;4997589;28;20188;-69
2023/04/24 00:16:43;;;;;;;0.30;0.30;;;10.70;99.90;;;;;;4997390;28;20184;-69
2023/04/24 00:19:09;;;;;;;0.50;0.50;;;10.70;99.90;;;;;;4996321;28;20187;-69
2023/04/24 00:21:34;;;;;;;0.30;0.30;;;10.70;99.90;;;;;;4997594;28;20168;-70
2023/04/24 00:24:00;;;;;;;0.40;0.30;;;10.70;99.90;;;;;;4997354;28;20594;-69
2023/04/24 00:26:26;;;;;;;0.30;0.30;;;10.70;99.90;;;;;;4997367;28;20663;-69
2023/04/24 00:28:51;;;;;;;0.30;0.30;;;10.70;99.90;;;;;;4997174;28;20524;-69
2023/04/24 00:31:17;;;;;;;0.43;0.43;;;10.70;99.90;;;;;;4997269;28;20174;-69
2023/04/24 00:33:43;;;;;;;1.70;0.93;;;10.60;99.90;;;;;;4997245;28;20224;-69
2023/04/24 00:36:09;;;;;;;0.30;0.30;;;10.60;99.90;;;;;;4997206;28;20758;-70
2023/04/24 00:38:35;;;;;;;0.73;0.73;;;10.60;99.90;;;;;;4996981;28;20579;-69
2023/04/24 00:41:00;;;;;;;0.50;0.50;;;10.40;99.90;;;;;;4997087;28;20206;-70
2023/04/24 00:43:26;;;;;;;0.40;0.40;;;10.30;99.90;;;;;;4995692;28;20203;-69
2023/04/24 00:45:51;;;;;;;0.30;0.30;;;10.30;99.90;;;;;;4997057;28;20689;-70
2023/04/24 00:48:18;;;;;;;0.30;0.30;;;10.30;99.90;;;;;;4996826;28;20251;-70
2023/04/24 00:50:45;;;;;;;0.30;0.30;;;10.40;99.90;;;;;;4996785;28;20199;-70
2023/04/24 00:53:10;;;;;;;0.30;0.30;;;10.30;99.90;;;;;;4996851;28;20915;-70
2023/04/24 00:55:37;;;;;;;0.30;0.30;;;10.40;99.90;;;;;;4996851;28;20200;-70
2023/04/24 00:58:03;;;;;;;1.38;1.38;;;10.40;99.90;;;;;;4996670;28;20519;-70
2023/04/24 01:00:29;;;;;;;0.50;0.40;;;10.50;99.90;;;;;;4996789;28;20178;-70
2023/04/24 01:02:57;;;;;;;0.32;0.32;;;10.70;99.90;;;;;;4996753;28;20483;-69
2023/04/24 01:05:23;;;;;;;0.50;0.50;;;10.50;99.90;;;;;;4996614;28;20176;-69
2023/04/24 01:07:48;;;;;;;0.40;0.40;;;10.50;99.90;;;;;;4996683;28;20647;-69
2023/04/24 01:10:15;;;;;;;0.30;0.30;;;10.50;99.90;;;;;;4996245;28;20307;-69
2023/04/24 01:12:41;;;;;;;0.30;0.30;;;10.40;99.90;;;;;;4996477;28;20414;-69
2023/04/24 01:15:07;;;;;;;0.30;0.30;;;9.80;99.90;;;;;;4996370;28;20226;-69
2023/04/24 01:17:33;;;;;;;0.30;0.30;;;9.90;99.90;;;;;;4996335;28;20172;-69
2023/04/24 01:20:00;;;;;;;0.83;0.83;;;10.00;99.90;;;;;;4996524;28;20691;-70
2023/04/24 01:22:26;;;;;;;0.40;0.40;;;10.00;99.90;;;;;;4996304;28;20243;-70
2023/04/24 01:24:53;;;;;;;0.30;0.30;;;10.10;99.90;;;;;;4996191;28;20200;-69
2023/04/24 01:27:19;;;;;;;0.40;0.40;;;10.20;99.90;;;;;;4996141;28;20266;-69
2023/04/24 01:29:45;;;;;;;0.40;0.40;;;10.20;99.90;;;;;;4996051;28;20236;-69
2023/04/24 01:32:11;;;;;;;0.40;0.40;;;10.10;99.90;;;;;;4996261;28;20172;-69
2023/04/24 01:34:38;;;;;;;0.50;0.50;;;10.20;99.90;;;;;;4995947;28;20655;-69
2023/04/24 01:37:05;;;;;;;0.30;0.30;;;10.30;99.90;;;;;;4995896;28;20746;-70
2023/04/24 01:39:31;;;;;;;0.63;0.63;;;10.20;99.90;;;;;;4996061;28;20641;-69
2023/04/24 01:41:56;;;;;;;0.33;0.33;;;10.30;99.90;;;;;;4996204;28;20196;-69
2023/04/24 01:44:23;;;;;;;0.30;0.30;;;10.30;99.90;;;;;;4995969;28;20431;-70
2023/04/24 01:46:49;;;;;;;0.30;0.30;;;10.30;99.90;;;;;;4995868;28;20403;-69
2023/04/24 01:49:15;;;;;;;0.30;0.30;;;10.30;99.90;;;;;;4995889;28;20656;-70
2023/04/24 01:51:41;;;;;;;0.40;0.40;;;10.40;99.90;;;;;;4995852;28;20449;-69
2023/04/24 01:54:06;;;;;;;0.40;0.40;;;10.40;99.90;;;;;;4995805;28;20192;-69
2023/04/24 01:56:37;;;;;;;0.30;0.30;;;10.30;99.90;;;;;;4995640;28;20199;-69
2023/04/24 01:59:03;;;;;;;0.65;0.60;;;10.30;99.90;;;;;;4995692;28;20262;-70
2023/04/24 02:01:35;;;;;;;0.45;0.45;;;10.30;99.90;;;;;;4995632;28;20172;-69
2023/04/24 02:04:01;;;;;;;0.30;0.30;;;10.30;99.90;;;;;;4996002;28;20588;-69
2023/04/24 02:06:27;;;;;;;0.87;0.60;;;10.30;99.90;;;;;;4995730;28;20176;-69
2023/04/24 02:08:53;;;;;;;0.40;0.40;;;10.30;99.90;;;;;;4995225;28;20467;-69
2023/04/24 02:11:18;;;;;;;0.40;0.40;;;10.20;99.90;;;;;;4994282;28;20176;-70
2023/04/24 02:13:44;;;;;;;0.80;0.80;;;10.30;99.90;;;;;;4995588;28;20196;-69
2023/04/24 02:16:10;;;;;;;0.70;0.70;;;10.20;99.90;;;;;;4995301;28;20257;-69
2023/04/24 02:18:36;;;;;;;0.30;0.30;;;10.20;99.90;;;;;;4995208;28;20255;-69
2023/04/24 02:21:02;;;;;;;0.40;0.40;;;10.10;99.90;;;;;;4995620;28;20626;-70
2023/04/24 02:23:27;;;;;;;0.60;0.60;;;10.10;99.90;;;;;;4994263;28;20652;-69
2023/04/24 02:25:53;;;;;;;1.70;1.70;;;10.10;99.90;;;;;;4995223;28;20266;-69
2023/04/24 02:28:19;;;;;;;0.30;0.30;;;10.10;99.90;;;;;;4994872;28;20239;-69
2023/04/24 02:30:45;;;;;;;0.30;0.30;;;10.00;99.90;;;;;;4995054;28;20455;-69
2023/04/24 02:33:11;;;;;;;0.30;0.30;;;10.00;99.90;;;;;;4995311;28;20472;-69
2023/04/24 02:35:37;;;;;;;0.77;0.77;;;10.00;99.90;;;;;;4994972;28;20402;-69
2023/04/24 02:38:03;;;;;;;0.50;0.50;;;10.10;99.90;;;;;;4994873;28;20180;-69
2023/04/24 02:40:29;;;;;;;0.40;0.40;;;10.10;99.90;;;;;;4993659;28;20596;-69
2023/04/24 02:42:55;;;;;;;0.32;0.32;;;10.20;99.90;;;;;;4994925;28;20613;-69
2023/04/24 02:45:21;;;;;;;0.30;0.30;;;10.20;99.90;;;;;;4994770;28;20215;-69
2023/04/24 02:47:46;;;;;;;0.30;0.30;;;10.20;99.90;;;;;;4994579;28;20212;-69
2023/04/24 02:50:12;;;;;;;0.30;0.30;;;10.20;99.90;;;;;;4994998;28;20196;-69
2023/04/24 02:52:38;;;;;;;0.30;0.30;;;10.20;99.90;;;;;;4994663;28;20184;-69
2023/04/24 02:55:04;;;;;;;0.40;0.40;;;10.10;99.90;;;;;;4994597;28;20188;-69
2023/04/24 02:57:29;;;;;;;0.30;0.30;;;10.00;99.90;;;;;;4994676;28;20172;-69
2023/04/24 02:59:55;;;;;;;0.50;0.50;;;9.90;99.90;;;;;;4994718;28;20172;-69
2023/04/24 03:02:21;;;;;;;0.40;0.40;;;9.80;99.90;;;;;;4994460;28;20183;-69
2023/04/24 03:04:47;;;;;;;0.30;0.30;;;9.80;99.90;;;;;;4994401;28;20678;-69
2023/04/24 03:07:14;;;;;;;0.43;0.43;;;9.80;99.90;;;;;;4994256;28;20226;-69
2023/04/24 03:09:40;;;;;;;0.45;0.40;;;9.80;99.90;;;;;;4994369;28;20259;-69
2023/04/24 03:12:06;;;;;;;0.30;0.30;;;9.90;99.90;;;;;;4994465;28;20168;-70
2023/04/24 03:14:32;;;;;;;0.30;0.30;;;9.80;99.90;;;;;;4992518;28;20600;-69
2023/04/24 03:16:57;;;;;;;0.30;0.30;;;9.90;99.90;;;;;;4994169;28;20179;-69
2023/04/24 03:19:23;;;;;;;0.30;0.30;;;9.90;99.90;;;;;;4994324;28;20403;-69
2023/04/24 03:21:49;;;;;;;0.40;0.40;;;9.80;99.90;;;;;;4993145;28;20632;-69
2023/04/24 03:24:15;;;;;;;0.30;0.30;;;9.60;99.90;;;;;;4994149;28;20188;-69
2023/04/24 03:26:40;;;;;;;0.40;0.40;;;9.50;99.90;;;;;;4994129;28;20416;-69
2023/04/24 03:29:06;;;;;;;0.40;0.40;;;9.60;99.90;;;;;;4993830;28;20230;-69
2023/04/24 03:31:31;;;;;;;0.30;0.30;;;9.80;99.90;;;;;;4994324;28;20172;-69
2023/04/24 03:33:57;;;;;;;0.40;0.40;;;9.90;99.90;;;;;;4993906;28;20238;-69
2023/04/24 03:36:23;;;;;;;0.40;0.40;;;9.90;99.90;;;;;;4994030;28;20235;-69
2023/04/24 03:38:48;;;;;;;0.30;0.30;;;9.90;99.90;;;;;;4992520;28;20180;-69
2023/04/24 03:41:14;;;;;;;0.30;0.30;;;9.90;99.90;;;;;;4993881;28;20176;-70
2023/04/24 03:43:40;;;;;;;0.77;0.40;;;9.90;99.90;;;;;;4994090;28;20191;-69
2023/04/24 03:46:06;;;;;;;0.33;0.33;;;9.90;99.90;;;;;;4994024;28;20418;-69
2023/04/24 03:48:32;;;;;;;0.30;0.30;;;9.80;99.90;;;;;;4993751;28;20299;-69
2023/04/24 03:50:58;;;;;;;0.30;0.30;;;9.90;99.90;;;;;;4994022;28;20692;-69
2023/04/24 03:53:23;;;;;;;0.30;0.30;;;9.70;99.90;;;;;;4993632;28;20652;-70
2023/04/24 03:55:49;;;;;;;0.30;0.30;;;9.60;99.90;;;;;;4993930;28;20206;-69
2023/04/24 03:58:14;;;;;;;0.50;0.50;;;9.70;99.90;;;;;;4993786;28;20179;-69
2023/04/24 04:00:40;;;;;;;0.57;0.50;;;9.60;99.90;;;;;;4993781;28;20175;-69
2023/04/24 04:03:06;;;;;;;0.30;0.30;;;9.50;99.90;;;;;;4993797;28;20195;-69
2023/04/24 04:05:32;;;;;;;0.50;0.50;;;9.60;99.90;;;;;;4993810;28;20172;-69
2023/04/24 04:07:57;;;;;;;0.30;0.30;;;9.60;99.90;;;;;;4993577;28;20408;-69
2023/04/24 04:10:23;;;;;;;0.50;0.50;;;9.50;99.90;;;;;;4993598;28;20207;-69
2023/04/24 04:12:49;;;;;;;0.30;0.30;;;9.30;99.90;;;;;;4993907;28;20499;-69
2023/04/24 04:15:15;;;;;;;0.30;0.30;;;9.50;99.90;;;;;;4993737;28;20164;-69
2023/04/24 04:17:40;;;;;;;0.40;0.40;;;9.50;99.90;;;;;;4993502;28;20176;-69
2023/04/24 04:20:10;;;;;;;0.60;0.50;;;9.50;99.90;;;;;;4993647;28;20426;-69
2023/04/24 04:22:36;;;;;;;0.40;0.40;;;9.50;99.90;;;;;;4993781;28;20622;-69
2023/04/24 04:25:03;;;;;;;0.40;0.40;;;9.50;99.90;;;;;;4993498;28;20200;-69
2023/04/24 04:27:31;;;;;;;1.20;1.15;;;9.30;99.90;;;;;;4993744;28;20179;-69
2023/04/24 04:30:04;;;;;;;0.52;0.52;;;9.10;99.90;;;;;;4993448;28;20215;-69
2023/04/24 04:32:34;;;;;;;0.50;0.50;;;9.10;99.90;;;;;;4993606;28;20644;-69
2023/04/24 04:35:03;;;;;;;1.77;0.55;;;9.20;99.90;;;;;;4993440;28;20570;-69
2023/04/24 04:37:29;;;;;;;0.65;0.65;;;9.20;99.90;;;;;;4993309;28;20248;-69
2023/04/24 04:39:55;;;;;;;0.40;0.40;;;9.30;99.90;;;;;;4993528;28;20180;-69
2023/04/24 04:42:21;;;;;;;0.40;0.40;;;9.30;99.90;;;;;;4993533;28;20168;-69
2023/04/24 04:44:47;;;;;;;0.40;0.40;;;9.10;99.90;;;;;;4993365;28;20664;-69
2023/04/24 04:47:12;;;;;;;0.40;0.40;;;8.90;99.90;;;;;;4995494;28;20187;-69
2023/04/24 04:49:38;;;;;;;0.50;0.50;;;8.80;99.90;;;;;;4996785;28;20207;-69
2023/04/24 04:52:04;;;;;;;0.70;0.70;;;8.90;99.90;;;;;;4996794;28;20514;-69
2023/04/24 04:54:31;;;;;;;0.80;0.63;;;8.90;99.90;;;;;;4996856;28;20299;-69
2023/04/24 04:56:57;;;;;;;0.40;0.40;;;9.00;99.90;;;;;;4996586;28;20188;-69
2023/04/24 04:59:22;;;;;;;0.40;0.40;;;9.10;99.90;;;;;;4996771;28;20538;-69
2023/04/24 05:01:48;;;;;;;0.40;0.40;;;9.20;99.90;;;;;;4996920;28;20234;-69
2023/04/24 05:04:14;;;;;;;0.40;0.40;;;9.10;99.90;;;;;;4996615;28;20208;-69
2023/04/24 05:06:39;;;;;;;0.30;0.30;;;9.10;99.90;;;;;;4996640;28;20183;-69
2023/04/24 05:09:07;;;;;;;0.70;0.70;;;9.10;99.90;;;;;;4996394;28;20192;-69
2023/04/24 05:11:32;;;;;;;1.73;0.65;;;9.00;99.90;;;;;;4996905;28;20255;-69
2023/04/24 05:13:58;;;;;;;0.40;0.40;;;9.00;99.90;;;;;;4996408;28;20232;-69
2023/04/24 05:16:24;;;;;;;0.30;0.30;;;9.10;99.90;;;;;;4996794;28;20215;-69
2023/04/24 05:18:49;;;;;;;0.40;0.40;;;9.20;99.90;;;;;;4996120;28;20172;-69
2023/04/24 05:21:15;;;;;;;0.97;0.97;;;9.30;99.90;;;;;;4996359;28;20628;-69
2023/04/24 05:23:41;;;;;;;0.50;0.40;;;9.30;99.90;;;;;;4996284;28;20238;-69
2023/04/24 05:26:06;;;;;;;1.87;1.03;;;9.50;99.90;;;;;;4996357;28;20311;-69
2023/04/24 05:28:32;;;;;;;0.80;0.70;;;9.40;99.90;;;;;;4996250;28;20169;-69
2023/04/24 05:30:59;;;;;;;0.40;0.40;;;9.30;99.90;;;;;;4996311;28;20172;-69
2023/04/24 05:33:25;;;;;;;0.30;0.30;;;9.30;99.90;;;;;;4996264;28;20192;-69
2023/04/24 05:35:51;;;;;;;0.60;0.60;;;9.20;99.90;;;;;;4996144;28;20259;-69
2023/04/24 05:38:19;;;;;;;0.70;0.70;;;9.10;99.90;;;;;;4995933;28;20262;-69
2023/04/24 05:40:45;;;;;;;1.63;1.52;;;8.80;99.90;;;;;;4996011;28;20655;-69
2023/04/24 05:43:10;;;;;;;1.02;1.02;;;8.80;99.90;;;;;;4994743;28;20201;-69
2023/04/24 05:45:36;;;;;;;0.90;0.90;;;8.80;99.90;;;;;;4995937;28;20280;-69
2023/04/24 05:48:03;;;;;;;0.50;0.50;;;9.00;99.90;;;;;;4995722;28;20168;-69
2023/04/24 05:50:29;;;;;;;0.45;0.43;;;9.00;99.90;;;;;;4995695;28;20196;-69
2023/04/24 05:52:54;;;;;;;0.60;0.60;;;9.00;99.90;;;;;;4995707;28;20279;-69
2023/04/24 05:55:20;;;;;;;0.67;0.47;;;8.90;99.90;;;;;;4995983;28;20168;-69
2023/04/24 05:57:47;;;;;;;0.40;0.40;;;9.00;99.90;;;;;;4994353;28;20172;-69
2023/04/24 06:00:12;;;;;;;1.58;1.58;;;9.10;99.90;;;;;;4995638;28;20649;-69
2023/04/24 06:02:39;;;;;;;0.70;0.70;;;9.00;99.90;;;;;;4995522;28;20307;-69
2023/04/24 06:05:05;;;;;;;0.50;0.50;;;9.10;99.90;;;;;;4994205;28;20783;-69
2023/04/24 06:07:31;;;;;;;0.68;0.60;;;9.30;99.90;;;;;;4995324;28;20215;-69
2023/04/24 06:09:57;;;;;;;1.38;1.27;;;9.50;99.90;;;;;;4995289;28;20567;-69
2023/04/24 06:12:23;;;;;;;0.50;0.50;;;9.70;99.90;;;;;;4995397;28;20176;-69
2023/04/24 06:14:48;;;;;;;1.57;1.47;;;9.90;99.90;;;;;;4993768;28;20242;-69
2023/04/24 06:17:15;;;;;;;0.67;0.67;;;9.90;99.90;;;;;;4995016;28;20403;-69
2023/04/24 06:19:40;;;;;;;1.52;1.52;;;9.80;99.90;;;;;;4995265;28;20175;-69
2023/04/24 06:22:06;;;;;;;0.40;0.40;;;9.70;99.90;;;;;;4995305;28;20180;-69
2023/04/24 06:24:32;;;;;;;2.77;1.00;;;9.80;99.90;;;;;;4994936;28;20535;-69
2023/04/24 06:27:01;;;;;;;0.70;0.70;;;9.70;99.30;;;;;;4995205;28;20179;-69
2023/04/24 06:29:27;;;;;;;0.98;0.95;;;9.70;99.80;;;;;;4994946;28;20459;-69
2023/04/24 06:31:53;;;;;;;0.60;0.60;;;9.70;99.40;;;;;;4994784;28;20191;-69
2023/04/24 06:34:19;;;;;;;0.40;0.40;;;9.80;99.60;;;;;;4994942;28;20504;-69
2023/04/24 06:36:46;;;;;;;0.63;0.63;;;9.80;99.10;;;;;;4994835;28;20402;-69
2023/04/24 06:39:12;;;;;;;2.45;1.13;;;9.70;99.00;;;;;;4995018;28;20168;-69
2023/04/24 06:41:38;;;;;;;0.40;0.40;;;9.60;99.70;;;;;;4995094;28;20254;-69
2023/04/24 06:44:03;;;;;;;0.40;0.40;;;9.30;99.90;;;;;;4994825;28;20661;-69
2023/04/24 06:46:29;;;;;;;1.03;0.60;;;9.00;99.90;;;;;;4993515;28;20609;-69
2023/04/24 06:48:55;;;;;;;0.40;0.40;;;8.80;99.90;;;;;;4994657;28;20178;-69
2023/04/24 06:51:23;;;;;;;0.30;0.30;;;8.70;99.90;;;;;;4994846;28;20172;-69
2023/04/24 06:53:51;;;;;;;0.95;0.70;;;8.80;99.90;;;;;;4994551;28;20990;-69
2023/04/24 06:56:17;;;;;;;0.40;0.40;;;8.70;99.90;;;;;;4994773;28;20176;-69
2023/04/24 06:58:43;;;;;;;0.43;0.43;;;8.30;99.90;;;;;;4994297;28;20176;-69
2023/04/24 07:01:09;;;;;;;0.77;0.77;;;8.30;99.90;;;;;;4994579;28;20255;-69
2023/04/24 07:03:36;;;;;;;2.60;1.25;;;8.50;99.90;;;;;;4994509;28;20811;-69
2023/04/24 07:06:03;;;;;;;0.60;0.60;;;8.80;99.90;;;;;;4994649;28;20260;-69
2023/04/24 07:08:30;;;;;;;0.73;0.73;;;8.90;99.90;;;;;;4993875;28;20691;-69
2023/04/24 07:10:56;;;;;;;0.30;0.30;;;9.10;99.90;;;;;;4994309;28;20204;-69
2023/04/24 07:13:22;;;;;;;1.45;1.35;;;9.40;99.90;;;;;;4994491;28;20188;-69
2023/04/24 07:15:53;;;;;;;0.40;0.40;;;10.00;99.90;;;;;;4994338;28;20180;-69
2023/04/24 07:18:19;;;;;;;0.60;0.60;;;10.50;96.60;;;;;;4994302;28;20183;-69
2023/04/24 07:20:45;;;;;;;0.40;0.40;;;10.90;96.70;;;;;;4994284;28;20497;-69
2023/04/24 07:23:11;;;;;;;0.90;0.90;;;11.20;95.00;;;;;;4994065;28;20462;-69
2023/04/24 07:25:38;;;;;;;0.30;0.30;;;11.40;94.50;;;;;;4994179;28;20172;-69
2023/04/24 07:28:04;;;;;;;0.53;0.53;;;11.40;94.70;;;;;;4993899;28;20239;-69
2023/04/24 07:30:32;;;;;;;1.37;1.27;;;11.60;94.50;;;;;;4994039;28;20462;-69
2023/04/24 07:32:58;;;;;;;1.17;1.17;;;11.60;94.40;;;;;;4994038;28;20403;-69
2023/04/24 07:35:25;;;;;;;0.30;0.30;;;11.70;93.10;;;;;;4994300;28;20895;-69
2023/04/24 07:37:52;;;;;;;1.10;1.10;;;11.70;93.80;;;;;;4993816;28;20461;-69
2023/04/24 07:40:18;;;;;;;0.40;0.40;;;11.60;93.80;;;;;;4993607;28;20780;-69
2023/04/24 07:42:44;;;;;;;0.30;0.30;;;;;;;;;;4992182;28;20812;-66
2023/04/24 07:45:10;;;;;;;1.93;1.80;;;11.70;97.30;;;;;;4993699;28;20418;-66
2023/04/24 07:47:36;;;;;;;0.40;0.40;;;12.00;96.00;;;;;;4994008;28;20411;-66
2023/04/24 07:50:03;;;;;;;1.57;1.33;;;12.00;93.30;;;;;;4992678;28;20240;-67
2023/04/24 07:52:28;;;;;;;1.13;1.10;;;11.90;94.00;;;;;;4993985;28;20470;-67
2023/04/24 07:54:58;;;;;;;6.67;2.13;;;12.10;93.10;;;;;;4994306;28;20951;-68
2023/04/24 07:57:25;;;;;;;1.00;0.90;;;12.20;92.30;;;;;;4993956;28;20184;-67
2023/04/24 07:59:51;;;;;;;1.93;0.97;;;12.50;92.50;;;;;;4994076;28;20411;-69
2023/04/24 08:02:16;;;;;;;0.87;0.87;;;12.70;90.80;;;;;;4994146;28;20415;-69
2023/04/24 08:04:42;;;;;;;0.77;0.73;;;12.30;90.80;;;;;;4993882;28;20927;-72
2023/04/24 08:07:08;;;;;;;0.70;0.70;;;12.00;90.80;;;;;;4994018;28;20695;-70
2023/04/24 08:09:33;;;;;;;1.10;1.00;;;11.90;92.00;;;;;;4993737;28;20782;-71
2023/04/24 08:11:59;;;;;;;0.40;0.40;;;12.30;91.60;;;;;;4993802;28;20547;-70
2023/04/24 08:14:25;;;;;;;0.80;0.80;;;12.70;91.10;;;;;;4992632;28;20196;-71
2023/04/24 08:16:52;;;;;;;1.17;0.90;;;12.80;90.40;;;;;;4993776;28;20539;-69
2023/04/24 08:19:17;;;;;;;0.57;0.57;;;12.50;90.00;;;;;;4994126;28;20179;-69
2023/04/24 08:21:43;;;;;;;0.97;0.97;;;12.30;90.70;;;;;;4997116;28;20403;-70
2023/04/24 08:24:09;;;;;;;0.40;0.40;;;12.30;90.20;;;;;;4997438;28;20200;-69
2023/04/24 08:26:34;;;;;;;0.87;0.77;;;12.10;90.10;;;;;;4997518;28;20173;-69
2023/04/24 08:29:00;;;;;;;0.80;0.80;;;11.80;90.50;;;;;;4997272;28;20634;-70
2023/04/24 08:31:26;;;;;;;3.80;1.60;;;11.50;90.80;;;;;;4997574;28;20191;-70
2023/04/24 08:33:52;;;;;;;0.80;0.80;;;11.30;90.60;;;;;;4997672;28;20489;-71
2023/04/24 08:36:18;;;;;;;1.53;0.83;;;11.50;91.00;;;;;;4997473;28;20775;-71
2023/04/24 08:38:43;;;;;;;1.77;1.67;;;11.60;91.80;;;;;;4995928;28;20636;-69
2023/04/24 08:41:09;;;;;;;1.90;0.63;;;11.70;91.20;;;;;;4997314;28;20183;-68
2023/04/24 08:43:36;;;;;;;1.03;1.03;;;12.20;93.60;;;;;;4996121;28;20192;-71
2023/04/24 08:46:04;;;;;;;0.60;0.60;;;12.80;93.20;;;;;;4997219;28;20481;-67
2023/04/24 08:48:31;;;;;;;1.33;1.30;;;13.30;92.00;;;;;;4997635;28;20399;-68
2023/04/24 08:50:57;;;;;;;0.80;0.80;;;13.70;90.90;;;;;;4996474;28;21014;-69
2023/04/24 08:53:25;;;;;;;4.43;1.37;;;14.00;90.30;;;;;;4996933;28;20457;-71
2023/04/24 08:55:53;;;;;;;1.90;0.80;;;14.10;85.90;;;;;;4996887;28;20411;-70
2023/04/24 08:58:19;;;;;;;0.90;0.90;;;13.60;83.10;;;;;;4995413;28;20474;-71
2023/04/24 09:00:47;;;;;;;0.63;0.63;;;13.00;84.70;;;;;;4995484;28;20443;-69
2023/04/24 09:03:16;;;;;;;1.13;0.93;;;12.30;86.10;;;;;;4996396;28;20422;-70
2023/04/24 09:05:47;;;;;;;0.70;0.60;;;12.10;87.00;;;;;;4995201;28;20427;-71
2023/04/24 09:08:13;;;;;;;0.87;0.87;;;11.90;86.40;;;;;;4994397;28;20506;-71
2023/04/24 09:10:40;;;;;;;1.00;1.00;;;11.70;85.40;;;;;;4996453;28;20455;-72
2023/04/24 09:13:08;;;;;;;0.70;0.70;;;11.80;85.70;;;;;;4996389;28;20467;-71
2023/04/24 09:15:35;;;;;;;0.60;0.60;;;11.70;86.60;;;;;;4996154;28;20462;-71
2023/04/24 09:18:01;;;;;;;0.87;0.80;;;11.10;87.90;;;;;;4996334;28;20426;-71
2023/04/24 09:20:27;;;;;;;0.55;0.55;;;11.00;90.90;;;;;;4996578;28;20415;-71
2023/04/24 09:22:57;;;;;;;1.23;1.13;;;10.80;90.70;;;;;;4996304;28;20207;-70
2023/04/24 09:25:25;;;;;;;0.83;0.83;;;11.20;90.90;;;;;;4996377;28;20556;-71
2023/04/24 09:27:54;;;;;;;0.80;0.80;;;11.60;88.80;;;;;;4996131;28;20407;-71
2023/04/24 09:30:23;;;;;;;0.43;0.43;;;11.80;87.40;;;;;;4996220;28;20545;-71
2023/04/24 09:32:48;;;;;;;0.77;0.70;;;12.60;86.70;;;;;;4994361;28;20837;-71
2023/04/24 09:35:15;;;;;;;0.87;0.87;;;12.40;85.40;;;;;;4996309;28;20411;-71
2023/04/24 09:37:45;;;;;;;0.40;0.40;;;12.40;85.50;;;;;;4996126;28;20180;-71
2023/04/24 09:40:13;;;;;;;1.93;1.60;;;11.80;82.40;;;;;;4996212;28;20448;-71
2023/04/24 09:42:42;;;;;;;0.50;0.50;;;10.80;84.90;;;;;;4996107;28;20759;-71
2023/04/24 09:45:10;;;;;;;0.70;0.57;;;10.60;88.70;;;;;;4995977;28;20438;-71
2023/04/24 09:47:40;;;;;;;0.70;0.70;;;10.70;88.40;;;;;;4995849;28;20570;-71
2023/04/24 09:50:14;;;;;;;0.40;0.40;;;11.10;88.40;;;;;;4996078;28;20538;-70
2023/04/24 09:52:41;;;;;;;0.80;0.80;;;12.10;85.40;;;;;;4995817;28;20431;-71
2023/04/24 09:55:20;;;;;;;0.80;0.80;;;13.10;85.50;;;;;;4996065;28;20423;-71
2023/04/24 09:57:54;;;;;;;0.60;0.60;;;13.90;81.50;;;;;;4995554;28;20419;-71
2023/04/24 10:00:30;;;;;;;4.07;1.90;;;14.00;77.30;;;;;;4995686;28;20473;-71
2023/04/24 10:03:00;;;;;;;1.53;1.07;;;13.40;89.30;;;;;;4995702;28;20976;-71
2023/04/24 10:05:34;;;;;;;0.67;0.67;;;13.60;78.40;;;;;;4995682;28;20768;-71
2023/04/24 10:08:02;;;;;;;1.67;1.53;;;13.40;78.00;;;;;;4995396;28;20494;-69
2023/04/24 10:10:29;;;;;;;0.40;0.40;;;12.10;79.40;;;;;;4995569;28;20454;-70
2023/04/24 10:12:55;;;;;;;2.05;1.95;;;10.40;91.00;;;;;;4995433;28;20403;-69
2023/04/24 10:15:21;;;;;;;0.45;0.45;;;10.70;84.60;;;;;;4995626;28;20209;-70
2023/04/24 10:17:52;;;;;;;1.45;1.35;;;10.10;85.70;;;;;;4995227;28;20200;-70
2023/04/24 10:20:19;;;;;;;1.15;1.15;;;10.10;87.50;;;;;;4995612;28;20176;-70
2023/04/24 10:22:51;;;;;;;1.15;1.15;;;10.20;86.80;;;;;;4995421;28;20180;-69
2023/04/24 10:25:22;;;;;;;0.77;0.77;;;10.40;90.20;;;;;;4995638;28;20563;-70
2023/04/24 10:27:49;;;;;;;1.38;1.30;;;10.80;90.20;;;;;;4995111;28;20311;-70
2023/04/24 10:30:18;;;;;;;1.10;0.80;;;11.40;88.50;;;;;;4995149;28;20208;-70
2023/04/24 10:32:44;;;;;;;1.53;1.47;;;11.90;85.20;;;;;;4995211;28;20542;-70
2023/04/24 10:35:12;;;;;;;0.60;0.60;;;12.20;82.80;;;;;;4994952;28;20420;-70
2023/04/24 10:37:46;;;;;;;1.13;1.03;;;12.60;83.70;;;;;;4994922;28;20903;-69
2023/04/24 10:40:16;;;;;;;1.00;1.00;;;13.00;80.30;;;;;;4995003;28;20462;-70
2023/04/24 10:42:46;;;;;;;0.40;0.40;;;12.70;81.10;;;;;;4994679;28;20410;-71
2023/04/24 10:45:21;;;;;;;0.50;0.50;;;12.70;78.50;;;;;;4994922;28;20476;-70
2023/04/24 10:48:01;;;;;;;0.83;0.83;;;13.00;79.50;;;;;;4994733;28;20410;-69
2023/04/24 10:50:30;;;;;;;0.43;0.40;;;13.20;76.70;;;;;;4994720;28;20459;-70
2023/04/24 10:53:07;;;;;;;0.50;0.50;;;14.10;90.70;;;;;;4994616;28;20427;-71
2023/04/24 10:55:47;;;;;;;0.40;0.40;;;14.00;79.00;;;;;;4994737;28;20461;-70
2023/04/24 10:58:13;;;;;;;0.40;0.40;;;14.60;76.80;;;;;;4994529;28;20439;-71
2023/04/24 11:00:40;;;;;;;0.40;0.40;;;15.10;77.00;;;;;;4995037;28;20435;-70
2023/04/24 11:03:08;;;;;;;1.17;0.50;;;15.40;74.10;;;;;;4994504;28;20230;-70
2023/04/24 11:05:50;;;;;;;0.57;0.57;;;15.40;70.70;;;;;;4994536;28;20413;-70
2023/04/24 11:08:23;;;;;;;0.70;0.70;;;14.90;72.40;;;;;;4994289;28;20404;-71
2023/04/24 11:10:58;;;;;;;1.97;1.00;;;14.30;72.40;;;;;;4994550;28;20453;-71
2023/04/24 11:13:25;;;;;;;0.40;0.40;;;13.90;72.80;;;;;;4994305;28;20430;-70
2023/04/24 11:16:14;;;;;;;0.50;0.50;;;13.50;75.10;;;;;;4994396;28;20457;-70
2023/04/24 11:18:45;;;;;;;0.50;0.50;;;13.10;76.90;;;;;;4994378;28;20399;-71
2023/04/24 11:21:17;;;;;;;1.60;1.50;;;12.60;80.40;;;;;;4994247;28;20450;-70
2023/04/24 11:23:43;;;;;;;0.50;0.50;;;12.40;76.90;;;;;;4994409;28;20423;-71
2023/04/24 11:26:26;;;;;;;0.40;0.40;;;12.30;77.70;;;;;;4994177;28;20411;-71
2023/04/24 11:28:52;;;;;;;0.90;0.90;;;12.60;77.40;;;;;;4994135;28;20201;-70
2023/04/24 11:31:49;;;;;;;0.70;0.70;;;12.90;77.90;;;;;;4994200;28;20439;-71
2023/04/24 11:34:16;;;;;;;0.40;0.40;;;13.40;78.30;;;;;;4992863;28;20283;-69
2023/04/24 11:36:46;;;;;;;0.50;0.50;;;13.90;74.40;;;;;;4994124;28;20407;-69
2023/04/24 11:39:13;;;;;;;0.80;0.80;;;14.00;73.40;;;;;;4994161;28;20414;-70
2023/04/24 11:41:38;;;;;;;0.80;0.60;;;14.10;72.60;;;;;;4994192;28;20416;-71
2023/04/24 11:44:11;;;;;;;1.00;0.90;;;13.60;75.00;;;;;;4994013;28;20513;-69
2023/04/24 11:46:39;;;;;;;0.30;0.30;;;13.50;78.20;;;;;;4992754;28;20273;-70
2023/04/24 11:49:05;;;;;;;1.57;1.13;;;13.30;76.80;;;;;;4993762;28;20411;-71
2023/04/24 11:51:32;;;;;;;1.10;0.80;;;12.90;77.20;;;;;;4993827;28;20786;-71
2023/04/24 11:53:58;;;;;;;0.80;0.80;;;12.90;76.70;;;;;;4994005;28;20184;-71
2023/04/24 11:56:25;;;;;;;0.40;0.40;;;12.70;75.20;;;;;;4998157;28;20412;-71
2023/04/24 11:58:54;;;;;;;0.50;0.50;;;12.80;79.40;;;;;;4997785;28;20407;-71
2023/04/24 12:01:20;;;;;;;0.97;0.87;;;13.10;78.40;;;;;;4997895;28;20408;-71
2023/04/24 12:03:59;;;;;;;0.40;0.40;;;13.30;79.40;;;;;;4996563;28;20508;-69
2023/04/24 12:06:25;;;;;;;0.90;0.50;;;13.50;76.20;;;;;;4997982;28;20395;-70
2023/04/24 12:08:55;;;;;;;0.70;0.70;;;13.80;79.60;;;;;;4997623;28;20746;-70
2023/04/24 12:11:20;;;;;;;1.73;1.27;;;13.70;77.30;;;;;;4997899;28;20168;-71
2023/04/24 12:13:46;;;;;;;0.67;0.60;;;14.00;75.20;;;;;;4997630;28;20481;-70
2023/04/24 12:16:12;;;;;;;0.40;0.40;;;14.40;73.80;;;;;;4998037;28;20247;-70
2023/04/24 12:18:43;;;;;;;0.70;0.70;;;14.30;73.90;;;;;;4997443;28;20674;-71
2023/04/24 12:21:22;;;;;;;0.50;0.50;;;14.50;71.40;;;;;;4997769;28;20457;-70
2023/04/24 12:23:48;;;;;;;0.70;0.70;;;14.60;72.90;;;;;;4997611;28;20430;-70
2023/04/24 12:26:18;;;;;;;1.53;1.00;;;14.50;70.60;;;;;;4997481;28;20407;-70
2023/04/24 12:28:47;;;;;;;0.40;0.40;;;14.40;71.90;;;;;;4996051;28;20433;-70
2023/04/24 12:31:12;;;;;;;1.43;1.33;;;14.40;72.60;;;;;;4997338;28;20488;-71
2023/04/24 12:33:38;;;;;;;0.60;0.60;;;14.50;70.90;;;;;;4997461;28;20467;-70
2023/04/24 12:36:06;;;;;;;0.67;0.67;;;14.40;71.90;;;;;;4997212;28;20259;-71
2023/04/24 12:38:39;;;;;;;0.40;0.40;;;14.10;71.30;;;;;;4997044;28;20169;-71
2023/04/24 12:41:09;;;;;;;0.73;0.73;;;14.00;74.40;;;;;;4997609;28;20415;-70
2023/04/24 12:43:36;;;;;;;0.40;0.40;;;14.00;72.30;;;;;;4997263;28;20497;-70
2023/04/24 12:46:02;;;;;;;0.43;0.43;;;13.90;74.10;;;;;;4997315;28;20414;-71
2023/04/24 12:48:29;;;;;;;0.30;0.30;;;13.70;72.70;;;;;;4995662;28;20793;-70
2023/04/24 12:50:56;;;;;;;1.43;1.33;;;13.60;75.80;;;;;;4997143;28;20465;-70